createdAt,value
2022-10-22T00:03:05.040Z,9.28
2022-10-22T00:07:58.237Z,9.66
2022-10-22T00:12:51.310Z,9.38
2022-10-22T00:17:45.797Z,9.54
2022-10-22T00:22:39.483Z,9.50
2022-10-22T00:27:32.607Z,9.15
2022-10-22T00:32:25.749Z,8.58
2022-10-22T00:37:20.284Z,9.11
2022-10-22T00:42:24.406Z,9.36
2022-10-22T00:47:19.020Z,9.17
2022-10-22T00:52:13.008Z,9.26
2022-10-22T00:57:07.640Z,9.36
2022-10-22T01:02:00.923Z,9.33
2022-10-22T01:06:54.011Z,9.04
2022-10-22T01:12:00.394Z,9.25
2022-10-22T01:17:01.691Z,9.25
2022-10-22T01:22:00.087Z,9.19
2022-10-22T01:27:12.360Z,9.15
2022-10-22T01:32:12.751Z,9.22
2022-10-22T01:37:06.041Z,9.06
2022-10-22T01:41:59.641Z,9.33
2022-10-22T01:46:59.045Z,9.36
2022-10-22T01:52:07.212Z,9.13
2022-10-22T01:57:09.605Z,9.40
2022-10-22T02:02:14.197Z,9.20
2022-10-22T02:07:13.162Z,9.31
2022-10-22T02:12:09.672Z,9.19
2022-10-22T02:17:03.306Z,8.74
2022-10-22T02:21:56.745Z,8.77
2022-10-22T02:26:56.140Z,8.45
2022-10-22T02:31:52.230Z,8.60
2022-10-22T02:36:50.333Z,8.15
2022-10-22T02:41:44.175Z,8.33
2022-10-22T02:46:39.031Z,8.08
2022-10-22T02:51:32.202Z,8.05
2022-10-22T02:56:25.331Z,7.93
2022-10-22T03:01:18.593Z,7.85
2022-10-22T03:06:13.307Z,7.75
2022-10-22T03:11:06.682Z,7.60
2022-10-22T03:15:59.809Z,7.60
2022-10-22T03:21:03.169Z,7.57
2022-10-22T03:30:55.690Z,7.36
2022-10-22T03:35:49.646Z,7.27
2022-10-22T03:40:45.518Z,7.47
2022-10-22T03:45:40.197Z,7.43
2022-10-22T03:50:33.487Z,7.51
2022-10-22T03:55:26.845Z,7.54
2022-10-22T04:00:20.331Z,7.58
2022-10-22T04:10:13.032Z,7.36
2022-10-22T04:15:07.255Z,7.66
2022-10-22T04:20:00.350Z,7.59
2022-10-22T04:24:54.921Z,7.51
2022-10-22T04:29:48.155Z,7.72
2022-10-22T04:34:41.383Z,7.86
2022-10-22T04:39:34.517Z,7.67
2022-10-22T04:44:28.962Z,8.13
2022-10-22T04:49:22.133Z,7.02
2022-10-22T04:54:15.359Z,8.10
2022-10-22T04:59:10.189Z,8.19
2022-10-22T05:04:06.021Z,7.70
2022-10-22T05:09:01.657Z,8.34
2022-10-22T05:13:56.464Z,8.38
2022-10-22T05:18:49.788Z,8.62
2022-10-22T05:23:45.302Z,8.73
2022-10-22T05:28:38.653Z,8.84
2022-10-22T05:33:33.266Z,8.83
2022-10-22T05:38:26.762Z,8.86
2022-10-22T05:43:21.228Z,9.02
2022-10-22T05:48:14.326Z,9.02
2022-10-22T05:53:07.480Z,9.13
2022-10-22T05:58:00.612Z,9.53
2022-10-22T06:02:55.192Z,9.35
2022-10-22T06:07:48.736Z,9.80
2022-10-22T06:12:42.186Z,10.12
2022-10-22T06:17:35.507Z,10.16
2022-10-22T06:22:30.013Z,10.44
2022-10-22T06:27:23.107Z,10.60
2022-10-22T06:32:16.231Z,10.69
2022-10-22T06:37:11.259Z,11.01
2022-10-22T06:42:05.949Z,11.24
2022-10-22T06:47:00.732Z,11.44
2022-10-22T06:51:54.929Z,11.61
2022-10-22T06:56:48.374Z,11.61
2022-10-22T07:01:43.476Z,11.86
2022-10-22T07:06:36.540Z,11.98
2022-10-22T07:11:31.176Z,12.15
2022-10-22T07:16:28.140Z,12.41
2022-10-22T07:21:26.818Z,12.56
2022-10-22T07:26:21.367Z,12.65
2022-10-22T07:31:18.893Z,12.66
2022-10-22T07:36:17.860Z,12.91
2022-10-22T07:41:12.877Z,13.24
2022-10-22T07:46:06.846Z,13.59
2022-10-22T07:51:00.028Z,13.92
2022-10-22T07:55:53.463Z,14.27
2022-10-22T08:00:48.681Z,14.80
2022-10-22T08:05:44.067Z,14.93
2022-10-22T08:10:37.329Z,15.04
2022-10-22T08:15:31.310Z,14.94
2022-10-22T08:20:25.957Z,14.54
2022-10-22T08:25:21.587Z,15.06
2022-10-22T08:30:15.296Z,15.21
2022-10-22T08:35:10.386Z,15.26
2022-10-22T08:40:07.964Z,15.34
2022-10-22T08:45:11.465Z,15.42
2022-10-22T08:50:17.742Z,15.74
2022-10-22T08:55:15.548Z,15.75
2022-10-22T09:00:14.996Z,14.87
2022-10-22T09:05:22.767Z,15.83
2022-10-22T09:10:18.399Z,15.95
2022-10-22T09:15:15.775Z,15.73
2022-10-22T09:20:18.340Z,15.97
2022-10-22T09:25:22.099Z,16.37
2022-10-22T09:30:18.692Z,16.43
2022-10-22T09:35:19.191Z,16.84
2022-10-22T09:40:16.114Z,16.90
2022-10-22T09:45:20.271Z,16.82
2022-10-22T09:50:28.418Z,17.09
2022-10-22T09:55:21.565Z,17.01
2022-10-22T10:00:21.209Z,17.16
2022-10-22T10:05:20.618Z,17.16
2022-10-22T10:10:35.132Z,17.17
2022-10-22T10:15:40.349Z,17.36
2022-10-22T10:20:43.023Z,17.57
2022-10-22T10:25:49.305Z,17.40
2022-10-22T10:30:52.914Z,17.94
2022-10-22T10:35:55.508Z,18.39
2022-10-22T10:40:52.622Z,18.66
2022-10-22T10:46:00.507Z,18.75
2022-10-22T10:51:07.726Z,18.83
2022-10-22T10:56:07.439Z,19.09
2022-10-22T11:01:11.370Z,19.14
2022-10-22T11:06:08.785Z,19.48
2022-10-22T11:11:07.958Z,19.33
2022-10-22T11:16:11.781Z,19.16
2022-10-22T11:21:24.120Z,19.51
2022-10-22T11:26:26.592Z,19.65
2022-10-22T11:31:25.085Z,19.88
2022-10-22T11:36:23.163Z,20.06
2022-10-22T11:41:20.258Z,19.96
2022-10-22T11:46:31.293Z,20.00
2022-10-22T11:51:36.095Z,19.08
2022-10-22T11:56:38.849Z,19.90
2022-10-22T12:01:42.984Z,19.97
2022-10-22T12:06:54.864Z,20.19
2022-10-22T12:11:51.353Z,20.02
2022-10-22T12:16:56.289Z,19.96
2022-10-22T12:21:57.453Z,20.24
2022-10-22T12:26:52.785Z,20.30
2022-10-22T12:31:48.595Z,20.44
2022-10-22T12:36:41.821Z,20.46
2022-10-22T12:41:36.527Z,20.26
2022-10-22T12:46:33.238Z,20.30
2022-10-22T12:51:28.745Z,20.56
2022-10-22T12:56:25.311Z,20.57
2022-10-22T13:01:19.574Z,20.58
2022-10-22T13:06:14.671Z,20.53
2022-10-22T13:11:12.476Z,20.77
2022-10-22T13:16:30.300Z,20.99
2022-10-22T13:21:27.591Z,21.00
2022-10-22T13:26:24.763Z,20.96
2022-10-22T13:31:20.534Z,21.08
2022-10-22T13:36:17.352Z,20.75
2022-10-22T13:41:22.653Z,20.78
2022-10-22T13:46:15.995Z,20.03
2022-10-22T13:51:16.326Z,20.30
2022-10-22T13:56:15.530Z,20.09
2022-10-22T14:01:20.687Z,19.81
2022-10-22T14:06:15.795Z,19.57
2022-10-22T14:11:12.467Z,19.46
2022-10-22T14:16:07.941Z,19.64
2022-10-22T14:21:07.474Z,19.35
2022-10-22T14:26:01.899Z,19.24
2022-10-22T14:30:55.876Z,19.18
2022-10-22T14:35:49.446Z,18.88
2022-10-22T14:40:44.918Z,18.95
2022-10-22T14:45:38.159Z,18.84
2022-10-22T14:50:31.367Z,18.74
2022-10-22T14:55:26.299Z,18.63
2022-10-22T15:00:22.094Z,18.36
2022-10-22T15:05:17.553Z,18.27
2022-10-22T15:10:11.712Z,18.26
2022-10-22T15:15:05.525Z,18.23
2022-10-22T15:20:04.094Z,18.17
2022-10-22T15:24:57.254Z,18.01
2022-10-22T15:29:50.449Z,17.83
2022-10-22T15:34:43.742Z,17.60
2022-10-22T15:39:44.073Z,17.78
2022-10-22T15:44:37.537Z,17.73
2022-10-22T15:49:30.853Z,17.69
2022-10-22T15:54:28.253Z,17.38
2022-10-22T15:59:23.161Z,17.44
2022-10-22T16:04:16.703Z,17.13
2022-10-22T16:09:12.049Z,17.55
2022-10-22T16:14:06.555Z,17.36
2022-10-22T16:19:01.596Z,17.17
2022-10-22T16:23:55.314Z,17.40
2022-10-22T16:28:49.591Z,17.48
2022-10-22T16:33:46.499Z,17.22
2022-10-22T16:38:44.706Z,17.05
2022-10-22T16:43:37.877Z,17.32
2022-10-22T16:48:32.034Z,17.22
2022-10-22T16:53:25.431Z,17.11
2022-10-22T16:58:20.079Z,17.00
2022-10-22T17:03:13.421Z,16.87
2022-10-22T17:08:06.826Z,16.21
2022-10-22T17:13:00.089Z,16.42
2022-10-22T17:17:54.661Z,16.42
2022-10-22T17:22:49.526Z,16.16
2022-10-22T17:27:43.795Z,16.28
2022-10-22T17:32:38.489Z,16.00
2022-10-22T17:37:33.217Z,16.16
2022-10-22T17:42:26.684Z,16.21
2022-10-22T17:47:19.978Z,16.24
2022-10-22T17:52:14.531Z,15.93
2022-10-22T17:57:09.338Z,16.09
2022-10-22T18:02:03.219Z,16.26
2022-10-22T18:06:57.124Z,16.03
2022-10-22T18:11:52.039Z,16.33
2022-10-22T18:16:47.159Z,16.27
2022-10-22T18:21:40.641Z,16.22
2022-10-22T18:26:33.789Z,16.15
2022-10-22T18:31:28.496Z,15.97
2022-10-22T18:36:24.711Z,15.79
2022-10-22T18:41:17.927Z,15.89
2022-10-22T18:46:11.339Z,15.62
2022-10-22T18:51:07.251Z,15.69
2022-10-22T18:56:01.850Z,15.51
2022-10-22T19:00:55.095Z,15.36
2022-10-22T19:05:50.479Z,15.20
2022-10-22T19:10:44.166Z,15.11
2022-10-22T19:15:38.775Z,14.98
2022-10-22T19:20:32.090Z,14.82
2022-10-22T19:25:25.588Z,15.08
2022-10-22T19:30:20.401Z,14.89
2022-10-22T19:35:14.890Z,14.76
2022-10-22T19:40:09.768Z,14.68
2022-10-22T19:45:03.158Z,14.57
2022-10-22T19:49:56.270Z,14.72
2022-10-22T19:54:51.195Z,14.23
2022-10-22T19:59:44.603Z,14.76
2022-10-22T20:04:37.800Z,14.68
2022-10-22T20:09:31.008Z,14.51
2022-10-22T20:14:25.618Z,14.57
2022-10-22T20:19:19.203Z,14.45
2022-10-22T20:24:12.783Z,13.97
2022-10-22T20:29:05.947Z,14.31
2022-10-22T20:34:02.280Z,13.89
2022-10-22T20:39:00.650Z,14.11
2022-10-22T20:43:53.917Z,14.19
2022-10-22T20:48:47.319Z,14.11
2022-10-22T20:53:41.817Z,14.04
2022-10-22T20:58:35.029Z,13.98
2022-10-22T21:03:28.348Z,13.88
2022-10-22T21:08:24.703Z,13.94
2022-10-22T21:13:19.620Z,13.66
2022-10-22T21:18:13.854Z,13.85
2022-10-22T21:23:07.214Z,13.84
2022-10-22T21:28:00.474Z,13.61
2022-10-22T21:32:56.913Z,13.80
2022-10-22T21:37:50.127Z,13.62
2022-10-22T21:42:43.807Z,13.76
2022-10-22T21:47:37.023Z,13.43
2022-10-22T21:52:31.557Z,13.64
2022-10-22T21:57:24.653Z,13.63
2022-10-22T22:02:17.770Z,13.60
2022-10-22T22:07:10.893Z,13.41
2022-10-22T22:12:07.744Z,13.43
2022-10-22T22:17:00.853Z,13.35
2022-10-22T22:21:55.940Z,13.24
2022-10-22T22:26:49.443Z,13.12
2022-10-22T22:31:46.030Z,12.83
2022-10-22T22:36:41.694Z,13.17
2022-10-22T22:41:34.915Z,12.87
2022-10-22T22:46:28.141Z,13.01
2022-10-22T22:51:22.792Z,12.87
2022-10-22T22:56:19.197Z,12.74
2022-10-22T23:01:16.009Z,12.76
2022-10-22T23:06:09.930Z,12.59
2022-10-22T23:11:06.505Z,12.72
2022-10-22T23:15:59.590Z,12.68
2022-10-22T23:20:53.464Z,12.48
2022-10-22T23:25:49.051Z,12.59
2022-10-22T23:30:45.650Z,12.41
2022-10-22T23:35:41.611Z,12.56
2022-10-22T23:40:34.766Z,12.56
2022-10-22T23:45:28.004Z,12.42
2022-10-22T23:50:22.508Z,12.44
2022-10-22T23:55:15.813Z,12.53
